sensor_id;sensor_type;location;lat;lon;timestamp;pressure;altitude;pressure_sealevel;temperature;humidity
3697;BME280;60662;48.810;8.872;2022-12-18T08:18:36;97666.31;;;-5.50;77.66
3697;BME280;60662;48.810;8.872;2022-12-18T08:19:42;97662.50;;;-5.37;77.27
3697;BME280;60662;48.810;8.872;2022-12-18T08:20:43;97655.22;;;-5.27;76.45
3697;BME280;60662;48.810;8.872;2022-12-18T08:21:45;97650.22;;;-4.98;75.83
3697;BME280;60662;48.810;8.872;2022-12-18T08:22:47;97660.94;;;-4.82;75.06
3697;BME280;60662;48.810;8.872;2022-12-18T08:23:49;97663.69;;;-4.76;74.66
3697;BME280;60662;48.810;8.872;2022-12-18T08:24:52;97663.00;;;-4.70;73.78
3697;BME280;60662;48.810;8.872;2022-12-18T08:25:53;97637.66;;;-4.92;73.62
3697;BME280;60662;48.810;8.872;2022-12-18T08:26:54;97654.41;;;-4.72;74.35
3697;BME280;60662;48.810;8.872;2022-12-18T08:28:18;97663.38;;;-4.00;72.82
3697;BME280;60662;48.810;8.872;2022-12-18T08:29:19;97661.91;;;-3.63;72.35
3697;BME280;60662;48.810;8.872;2022-12-18T08:30:25;97655.91;;;-3.32;70.50
3697;BME280;60662;48.810;8.872;2022-12-18T08:31:28;97656.97;;;-2.88;69.99
3697;BME280;60662;48.810;8.872;2022-12-18T08:32:29;97658.16;;;-3.10;69.03
3697;BME280;60662;48.810;8.872;2022-12-18T08:33:31;97654.06;;;-3.04;68.81
3697;BME280;60662;48.810;8.872;2022-12-18T08:34:33;97667.00;;;-2.98;67.75
3697;BME280;60662;48.810;8.872;2022-12-18T08:35:35;97656.94;;;-3.25;68.92
3697;BME280;60662;48.810;8.872;2022-12-18T08:36:45;97662.28;;;-3.16;68.57
3697;BME280;60662;48.810;8.872;2022-12-18T08:37:47;97659.34;;;-3.31;69.08
3697;BME280;60662;48.810;8.872;2022-12-18T08:38:48;97665.59;;;-2.85;68.49
3697;BME280;60662;48.810;8.872;2022-12-18T08:39:50;97648.84;;;-3.40;68.52
3697;BME280;60662;48.810;8.872;2022-12-18T08:41:01;97660.16;;;-2.62;67.10
3697;BME280;60662;48.810;8.872;2022-12-18T08:42:03;97655.72;;;-2.33;66.80
3697;BME280;60662;48.810;8.872;2022-12-18T08:43:23;97657.34;;;-1.98;64.97
3697;BME280;60662;48.810;8.872;2022-12-18T08:44:43;97664.88;;;-2.81;66.07
3697;BME280;60662;48.810;8.872;2022-12-18T08:45:45;97656.38;;;-2.41;66.19
3697;BME280;60662;48.810;8.872;2022-12-18T08:46:46;97652.63;;;-2.19;66.69
3697;BME280;60662;48.810;8.872;2022-12-18T08:47:48;97655.50;;;-2.43;65.73
3697;BME280;60662;48.810;8.872;2022-12-18T08:48:53;97645.00;;;-2.16;65.33
3697;BME280;60662;48.810;8.872;2022-12-18T08:49:56;97652.41;;;-1.89;64.35
3697;BME280;60662;48.810;8.872;2022-12-18T08:50:58;97647.28;;;-3.03;66.41
3697;BME280;60662;48.810;8.872;2022-12-18T08:52:00;97643.50;;;-2.06;65.73
3697;BME280;60662;48.810;8.872;2022-12-18T08:53:02;97639.53;;;-1.48;64.28
3697;BME280;60662;48.810;8.872;2022-12-18T08:54:04;97646.59;;;-0.87;63.19
3697;BME280;60662;48.810;8.872;2022-12-18T08:55:07;97643.28;;;-0.81;61.62
3697;BME280;60662;48.810;8.872;2022-12-18T08:56:09;97642.31;;;-1.37;61.81
3697;BME280;60662;48.810;8.872;2022-12-18T08:57:11;97647.81;;;-2.04;63.31
3697;BME280;60662;48.810;8.872;2022-12-18T08:58:12;97621.59;;;-1.48;62.98
3697;BME280;60662;48.810;8.872;2022-12-18T08:59:14;97651.59;;;-1.42;61.99
3697;BME280;60662;48.810;8.872;2022-12-18T09:00:20;97642.88;;;-1.04;61.73
3697;BME280;60662;48.810;8.872;2022-12-18T09:01:22;97636.97;;;-1.00;61.44
3697;BME280;60662;48.810;8.872;2022-12-18T09:02:24;97638.59;;;-0.50;60.31
3697;BME280;60662;48.810;8.872;2022-12-18T09:03:25;97648.66;;;-0.64;60.10
3697;BME280;60662;48.810;8.872;2022-12-18T09:04:27;97646.19;;;-1.10;61.96
3697;BME280;60662;48.810;8.872;2022-12-18T09:05:28;97648.84;;;-0.52;59.98
3697;BME280;60662;48.810;8.872;2022-12-18T09:06:30;97634.41;;;-0.45;60.30
3697;BME280;60662;48.810;8.872;2022-12-18T09:07:32;97617.28;;;0.20;59.24
3697;BME280;60662;48.810;8.872;2022-12-18T09:08:36;97633.97;;;0.55;57.51
3697;BME280;60662;48.810;8.872;2022-12-18T09:09:38;97639.13;;;0.56;57.10
3697;BME280;60662;48.810;8.872;2022-12-18T09:10:47;97633.38;;;0.05;58.17
3697;BME280;60662;48.810;8.872;2022-12-18T09:11:49;97629.00;;;-0.02;58.06
3697;BME280;60662;48.810;8.872;2022-12-18T09:12:50;97626.28;;;-0.14;59.12
3697;BME280;60662;48.810;8.872;2022-12-18T09:13:53;97623.56;;;-1.34;60.50
3697;BME280;60662;48.810;8.872;2022-12-18T09:14:55;97620.72;;;-0.45;61.41
3697;BME280;60662;48.810;8.872;2022-12-18T09:15:58;97622.41;;;-0.46;60.51
3697;BME280;60662;48.810;8.872;2022-12-18T09:16:59;97624.72;;;-0.63;60.60
3697;BME280;60662;48.810;8.872;2022-12-18T09:18:01;97625.41;;;-0.17;59.29
3697;BME280;60662;48.810;8.872;2022-12-18T09:19:04;97620.72;;;-0.45;59.32
3697;BME280;60662;48.810;8.872;2022-12-18T09:20:09;97628.00;;;-0.72;61.84
3697;BME280;60662;48.810;8.872;2022-12-18T09:21:20;97627.94;;;-0.18;60.93
3697;BME280;60662;48.810;8.872;2022-12-18T09:22:21;97628.09;;;-0.06;59.38
3697;BME280;60662;48.810;8.872;2022-12-18T09:23:23;97625.03;;;-0.43;60.74
3697;BME280;60662;48.810;8.872;2022-12-18T09:24:24;97610.66;;;-0.31;59.64
3697;BME280;60662;48.810;8.872;2022-12-18T09:25:26;97629.38;;;-0.39;59.93
3697;BME280;60662;48.810;8.872;2022-12-18T09:26:32;97629.59;;;-0.22;59.81
3697;BME280;60662;48.810;8.872;2022-12-18T09:27:39;97623.44;;;-0.35;59.92
3697;BME280;60662;48.810;8.872;2022-12-18T09:28:40;97630.47;;;-0.20;60.48
3697;BME280;60662;48.810;8.872;2022-12-18T09:29:43;97625.50;;;0.65;58.30
3697;BME280;60662;48.810;8.872;2022-12-18T09:30:48;97621.38;;;0.04;59.09
3697;BME280;60662;48.810;8.872;2022-12-18T09:31:52;97619.56;;;0.71;57.69
3697;BME280;60662;48.810;8.872;2022-12-18T09:32:54;97616.06;;;1.70;55.10
3697;BME280;60662;48.810;8.872;2022-12-18T09:33:55;97607.88;;;3.66;52.43
3697;BME280;60662;48.810;8.872;2022-12-18T09:34:58;97616.38;;;4.07;49.32
3697;BME280;60662;48.810;8.872;2022-12-18T09:36:01;97616.03;;;4.84;47.82
3697;BME280;60662;48.810;8.872;2022-12-18T09:37:03;97614.13;;;6.06;45.27
3697;BME280;60662;48.810;8.872;2022-12-18T09:38:05;97621.63;;;6.29;44.60
3697;BME280;60662;48.810;8.872;2022-12-18T09:39:06;97597.66;;;6.10;43.16
3697;BME280;60662;48.810;8.872;2022-12-18T09:40:14;97618.03;;;6.43;43.60
3697;BME280;60662;48.810;8.872;2022-12-18T09:42:34;97626.81;;;5.40;44.69
3697;BME280;60662;48.810;8.872;2022-12-18T09:43:41;97628.81;;;6.05;44.35
3697;BME280;60662;48.810;8.872;2022-12-18T09:44:50;97613.56;;;7.66;41.65
3697;BME280;60662;48.810;8.872;2022-12-18T09:45:56;97618.88;;;7.62;40.82
3697;BME280;60662;48.810;8.872;2022-12-18T09:47:16;97621.59;;;5.50;44.20
3697;BME280;60662;48.810;8.872;2022-12-18T09:48:27;97614.38;;;5.80;44.11
3697;BME280;60662;48.810;8.872;2022-12-18T09:49:32;97619.78;;;7.03;42.86
3697;BME280;60662;48.810;8.872;2022-12-18T09:50:38;97621.84;;;8.34;40.85
3697;BME280;60662;48.810;8.872;2022-12-18T09:52:04;97624.44;;;9.17;39.40
3697;BME280;60662;48.810;8.872;2022-12-18T09:53:20;97625.47;;;8.71;39.80
3697;BME280;60662;48.810;8.872;2022-12-18T09:54:33;97620.88;;;7.94;39.64
3697;BME280;60662;48.810;8.872;2022-12-18T09:55:41;97630.50;;;5.10;43.44
3697;BME280;60662;48.810;8.872;2022-12-18T09:56:44;97600.78;;;5.56;44.70
3697;BME280;60662;48.810;8.872;2022-12-18T09:57:51;97631.53;;;5.90;44.07
3697;BME280;60662;48.810;8.872;2022-12-18T09:59:02;97630.59;;;6.02;43.53
3697;BME280;60662;48.810;8.872;2022-12-18T10:01:19;97636.47;;;6.18;43.31
3697;BME280;60662;48.810;8.872;2022-12-18T10:02:24;97639.50;;;5.70;43.88
3697;BME280;60662;48.810;8.872;2022-12-18T10:03:27;97635.63;;;8.83;40.12
3697;BME280;60662;48.810;8.872;2022-12-18T10:04:30;97626.75;;;9.66;38.43
3697;BME280;60662;48.810;8.872;2022-12-18T10:07:01;97627.28;;;9.44;37.50
3697;BME280;60662;48.810;8.872;2022-12-18T10:08:37;97622.00;;;10.13;37.22
3697;BME280;60662;48.810;8.872;2022-12-18T10:14:36;97630.47;;;11.41;35.91
3697;BME280;60662;48.810;8.872;2022-12-18T10:15:56;97637.47;;;12.19;34.08
3697;BME280;60662;48.810;8.872;2022-12-18T10:17:26;97634.34;;;7.15;39.34
3697;BME280;60662;48.810;8.872;2022-12-18T10:21:48;97637.06;;;10.35;36.50
3697;BME280;60662;48.810;8.872;2022-12-18T10:24:15;97646.56;;;8.58;38.71
3697;BME280;60662;48.810;8.872;2022-12-18T10:25:23;97637.00;;;8.59;39.31
3697;BME280;60662;48.810;8.872;2022-12-18T10:26:26;97641.31;;;11.00;36.82
3697;BME280;60662;48.810;8.872;2022-12-18T10:27:28;97642.31;;;10.96;35.83
3697;BME280;60662;48.810;8.872;2022-12-18T10:28:32;97626.59;;;10.05;37.21
3697;BME280;60662;48.810;8.872;2022-12-18T10:29:34;97640.41;;;11.01;36.08
3697;BME280;60662;48.810;8.872;2022-12-18T10:30:38;97633.88;;;11.16;34.87
3697;BME280;60662;48.810;8.872;2022-12-18T10:31:40;97639.66;;;10.38;35.56
3697;BME280;60662;48.810;8.872;2022-12-18T10:32:41;97636.50;;;8.40;38.68
3697;BME280;60662;48.810;8.872;2022-12-18T10:33:43;97648.75;;;7.88;40.30
3697;BME280;60662;48.810;8.872;2022-12-18T10:34:49;97636.91;;;9.03;38.78
3697;BME280;60662;48.810;8.872;2022-12-18T10:35:58;97641.72;;;10.25;37.46
3697;BME280;60662;48.810;8.872;2022-12-18T10:37:03;97638.13;;;9.96;36.77
3697;BME280;60662;48.810;8.872;2022-12-18T10:38:22;97637.78;;;11.83;34.98
3697;BME280;60662;48.810;8.872;2022-12-18T10:39:24;97650.22;;;8.48;38.65
3697;BME280;60662;48.810;8.872;2022-12-18T10:40:27;97656.00;;;7.14;39.96
3697;BME280;60662;48.810;8.872;2022-12-18T10:41:29;97642.50;;;6.21;41.92
3697;BME280;60662;48.810;8.872;2022-12-18T10:42:31;97636.75;;;6.68;42.32
3697;BME280;60662;48.810;8.872;2022-12-18T10:43:38;97644.41;;;6.74;42.16
3697;BME280;60662;48.810;8.872;2022-12-18T10:44:40;97648.34;;;8.09;40.67
3697;BME280;60662;48.810;8.872;2022-12-18T10:45:42;97635.47;;;7.53;41.09
3697;BME280;60662;48.810;8.872;2022-12-18T10:47:03;97644.09;;;8.50;40.31
3697;BME280;60662;48.810;8.872;2022-12-18T10:48:19;97646.47;;;8.16;39.55
3697;BME280;60662;48.810;8.872;2022-12-18T10:49:47;97653.81;;;9.24;39.76
3697;BME280;60662;48.810;8.872;2022-12-18T10:50:53;97641.78;;;8.79;39.89
3697;BME280;60662;48.810;8.872;2022-12-18T10:52:21;97650.34;;;8.84;38.20
3697;BME280;60662;48.810;8.872;2022-12-18T10:53:26;97644.38;;;7.38;40.70
3697;BME280;60662;48.810;8.872;2022-12-18T10:54:33;97645.38;;;5.92;43.51
3697;BME280;60662;48.810;8.872;2022-12-18T10:55:38;97634.16;;;7.26;42.37
3697;BME280;60662;48.810;8.872;2022-12-18T10:56:41;97618.59;;;8.23;40.73
3697;BME280;60662;48.810;8.872;2022-12-18T10:57:44;97633.50;;;7.13;41.95
3697;BME280;60662;48.810;8.872;2022-12-18T10:59:04;97638.59;;;8.66;40.33
3697;BME280;60662;48.810;8.872;2022-12-18T11:00:30;97634.59;;;9.64;39.13
3697;BME280;60662;48.810;8.872;2022-12-18T11:02:50;97632.31;;;8.31;40.60
3697;BME280;60662;48.810;8.872;2022-12-18T11:05:02;97629.28;;;8.54;40.63
3697;BME280;60662;48.810;8.872;2022-12-18T11:06:07;97625.31;;;9.16;40.18
3697;BME280;60662;48.810;8.872;2022-12-18T11:07:09;97621.94;;;9.83;38.34
3697;BME280;60662;48.810;8.872;2022-12-18T11:08:20;97617.38;;;11.68;35.92
3697;BME280;60662;48.810;8.872;2022-12-18T11:09:28;97616.53;;;10.55;37.00
3697;BME280;60662;48.810;8.872;2022-12-18T11:10:37;97606.31;;;9.47;37.50
3697;BME280;60662;48.810;8.872;2022-12-18T11:11:41;97614.75;;;8.42;39.76
3697;BME280;60662;48.810;8.872;2022-12-18T11:12:49;97620.19;;;9.13;38.56
3697;BME280;60662;48.810;8.872;2022-12-18T11:14:05;97612.78;;;8.10;40.26
3697;BME280;60662;48.810;8.872;2022-12-18T11:15:16;97614.03;;;10.51;37.31
3697;BME280;60662;48.810;8.872;2022-12-18T11:16:19;97603.38;;;9.94;37.76
3697;BME280;60662;48.810;8.872;2022-12-18T11:17:34;97612.97;;;9.60;38.58
3697;BME280;60662;48.810;8.872;2022-12-18T11:18:36;97625.28;;;8.36;40.08
3697;BME280;60662;48.810;8.872;2022-12-18T11:19:40;97622.47;;;8.48;39.55
3697;BME280;60662;48.810;8.872;2022-12-18T11:20:43;97621.28;;;9.75;39.32
3697;BME280;60662;48.810;8.872;2022-12-18T11:21:59;97636.09;;;9.38;38.40
3697;BME280;60662;48.810;8.872;2022-12-18T11:23:04;97630.63;;;9.11;39.17
3697;BME280;60662;48.810;8.872;2022-12-18T11:24:21;97623.69;;;7.83;40.56
3697;BME280;60662;48.810;8.872;2022-12-18T11:25:24;97622.00;;;7.79;41.04
3697;BME280;60662;48.810;8.872;2022-12-18T11:26:34;97575.81;;;6.91;41.97
3697;BME280;60662;48.810;8.872;2022-12-18T11:27:38;97627.31;;;8.22;40.78
3697;BME280;60662;48.810;8.872;2022-12-18T11:28:44;97616.66;;;7.37;41.31
3697;BME280;60662;48.810;8.872;2022-12-18T11:29:49;97618.69;;;6.60;42.89
3697;BME280;60662;48.810;8.872;2022-12-18T11:32:34;97622.91;;;6.66;43.97
3697;BME280;60662;48.810;8.872;2022-12-18T11:33:39;97620.38;;;8.66;41.59
3697;BME280;60662;48.810;8.872;2022-12-18T11:36:11;97629.16;;;5.71;44.83
3697;BME280;60662;48.810;8.872;2022-12-18T11:37:13;97620.88;;;5.28;46.27
3697;BME280;60662;48.810;8.872;2022-12-18T11:38:21;97615.63;;;5.38;46.13
3697;BME280;60662;48.810;8.872;2022-12-18T11:40:36;97611.41;;;6.18;45.76
3697;BME280;60662;48.810;8.872;2022-12-18T11:42:08;97611.44;;;5.23;46.52
3697;BME280;60662;48.810;8.872;2022-12-18T11:43:27;97618.94;;;5.53;46.46
3697;BME280;60662;48.810;8.872;2022-12-18T11:44:42;97607.13;;;6.16;45.47
3697;BME280;60662;48.810;8.872;2022-12-18T11:46:02;97611.41;;;7.40;43.22
3697;BME280;60662;48.810;8.872;2022-12-18T11:48:46;97610.81;;;5.88;46.16
3697;BME280;60662;48.810;8.872;2022-12-18T11:49:51;97598.56;;;5.14;46.09
3697;BME280;60662;48.810;8.872;2022-12-18T11:50:56;97606.69;;;5.70;46.19
3697;BME280;60662;48.810;8.872;2022-12-18T11:53:18;97600.47;;;4.89;49.41
3697;BME280;60662;48.810;8.872;2022-12-18T11:54:20;97592.38;;;3.68;49.64
3697;BME280;60662;48.810;8.872;2022-12-18T11:56:35;97606.16;;;3.62;51.00
3697;BME280;60662;48.810;8.872;2022-12-18T11:59:05;97608.75;;;3.57;52.03
3697;BME280;60662;48.810;8.872;2022-12-18T12:00:16;97595.78;;;3.81;51.51
3697;BME280;60662;48.810;8.872;2022-12-18T12:08:15;97569.16;;;2.50;54.93
3697;BME280;60662;48.810;8.872;2022-12-18T12:09:33;97600.16;;;2.87;54.19
3697;BME280;60662;48.810;8.872;2022-12-18T12:17:45;97581.09;;;2.20;56.29
3697;BME280;60662;48.810;8.872;2022-12-18T12:18:54;97585.00;;;1.47;57.64
3697;BME280;60662;48.810;8.872;2022-12-18T12:20:19;97580.16;;;2.01;57.26
3697;BME280;60662;48.810;8.872;2022-12-18T12:21:42;97579.22;;;1.85;57.33
3697;BME280;60662;48.810;8.872;2022-12-18T12:23:05;97582.88;;;0.90;58.74
3697;BME280;60662;48.810;8.872;2022-12-18T12:24:37;97575.47;;;0.32;61.17
3697;BME280;60662;48.810;8.872;2022-12-18T12:26:02;97583.56;;;-0.08;62.72
3697;BME280;60662;48.810;8.872;2022-12-18T12:28:51;97583.59;;;-0.06;63.12
3697;BME280;60662;48.810;8.872;2022-12-18T12:30:11;97587.25;;;0.14;62.96
3697;BME280;60662;48.810;8.872;2022-12-18T12:33:52;97589.31;;;1.46;60.19
3697;BME280;60662;48.810;8.872;2022-12-18T12:35:22;97577.25;;;1.41;59.98
3697;BME280;60662;48.810;8.872;2022-12-18T12:39:05;97582.81;;;0.01;64.39
3697;BME280;60662;48.810;8.872;2022-12-18T12:40:12;97602.69;;;-0.50;63.58
3697;BME280;60662;48.810;8.872;2022-12-18T12:41:36;97604.88;;;-0.17;65.25
3697;BME280;60662;48.810;8.872;2022-12-18T12:43:05;97602.50;;;0.02;64.11
3697;BME280;60662;48.810;8.872;2022-12-18T12:44:22;97604.53;;;-0.40;63.89
3697;BME280;60662;48.810;8.872;2022-12-18T12:45:37;97600.09;;;0.14;64.73
3697;BME280;60662;48.810;8.872;2022-12-18T12:46:41;97603.78;;;-0.32;64.32
3697;BME280;60662;48.810;8.872;2022-12-18T12:47:44;97598.03;;;-0.14;65.14
3697;BME280;60662;48.810;8.872;2022-12-18T12:48:56;97599.19;;;0.11;63.84
3697;BME280;60662;48.810;8.872;2022-12-18T12:50:02;97605.97;;;0.04;64.45
3697;BME280;60662;48.810;8.872;2022-12-18T12:51:12;97600.59;;;-0.14;64.31
3697;BME280;60662;48.810;8.872;2022-12-18T12:52:37;97606.91;;;0.12;63.96
3697;BME280;60662;48.810;8.872;2022-12-18T12:53:40;97602.44;;;-0.03;63.97
3697;BME280;60662;48.810;8.872;2022-12-18T12:54:43;97605.88;;;-0.65;65.55
3697;BME280;60662;48.810;8.872;2022-12-18T12:55:46;97623.53;;;-0.27;65.18
3697;BME280;60662;48.810;8.872;2022-12-18T12:56:54;97615.34;;;0.02;64.99
3697;BME280;60662;48.810;8.872;2022-12-18T12:58:27;97611.50;;;-0.29;64.82
3697;BME280;60662;48.810;8.872;2022-12-18T12:59:57;97613.94;;;0.26;63.90
3697;BME280;60662;48.810;8.872;2022-12-18T13:01:10;97619.41;;;0.58;63.37
3697;BME280;60662;48.810;8.872;2022-12-18T13:02:29;97627.28;;;-0.03;64.31
3697;BME280;60662;48.810;8.872;2022-12-18T13:05:04;97621.25;;;0.69;63.07
3697;BME280;60662;48.810;8.872;2022-12-18T13:06:16;97612.50;;;0.53;62.99
3697;BME280;60662;48.810;8.872;2022-12-18T13:07:27;97593.47;;;0.37;64.17
3697;BME280;60662;48.810;8.872;2022-12-18T13:08:32;97620.06;;;0.39;63.63
3697;BME280;60662;48.810;8.872;2022-12-18T13:10:12;97611.94;;;0.03;64.43
3697;BME280;60662;48.810;8.872;2022-12-18T13:13:13;97607.38;;;-0.18;65.42
3697;BME280;60662;48.810;8.872;2022-12-18T13:14:33;97603.16;;;-0.16;65.37
3697;BME280;60662;48.810;8.872;2022-12-18T13:15:46;97607.88;;;-0.45;66.13
3697;BME280;60662;48.810;8.872;2022-12-18T13:16:48;97605.97;;;-0.60;66.89
3697;BME280;60662;48.810;8.872;2022-12-18T13:18:13;97604.47;;;-1.01;67.73
3697;BME280;60662;48.810;8.872;2022-12-18T13:19:22;97591.41;;;-1.15;68.43
3697;BME280;60662;48.810;8.872;2022-12-18T13:20:33;97592.22;;;-1.19;68.92
3697;BME280;60662;48.810;8.872;2022-12-18T13:21:35;97595.47;;;-1.28;68.37
3697;BME280;60662;48.810;8.872;2022-12-18T13:22:47;97597.66;;;-1.95;70.70
3697;BME280;60662;48.810;8.872;2022-12-18T13:23:50;97585.28;;;-2.15;71.94
3697;BME280;60662;48.810;8.872;2022-12-18T13:24:51;97583.78;;;-2.05;72.03
3697;BME280;60662;48.810;8.872;2022-12-18T13:27:51;97592.72;;;-2.27;72.67
3697;BME280;60662;48.810;8.872;2022-12-18T13:29:49;97571.63;;;-2.57;73.82
3697;BME280;60662;48.810;8.872;2022-12-18T13:30:57;97588.69;;;-2.57;73.36
3697;BME280;60662;48.810;8.872;2022-12-18T13:32:00;97588.25;;;-2.36;74.19
3697;BME280;60662;48.810;8.872;2022-12-18T13:34:16;97593.06;;;-2.50;73.72
3697;BME280;60662;48.810;8.872;2022-12-18T13:36:33;97574.00;;;-2.65;73.48
3697;BME280;60662;48.810;8.872;2022-12-18T13:37:42;97569.19;;;-2.51;74.03
3697;BME280;60662;48.810;8.872;2022-12-18T13:38:44;97581.94;;;-2.54;73.96
3697;BME280;60662;48.810;8.872;2022-12-18T13:39:46;97577.28;;;-2.32;73.61
3697;BME280;60662;48.810;8.872;2022-12-18T13:44:39;97580.50;;;-2.41;73.24
3697;BME280;60662;48.810;8.872;2022-12-18T13:47:04;97583.88;;;-2.43;73.62
3697;BME280;60662;48.810;8.872;2022-12-18T13:48:15;97578.94;;;-2.34;73.30
3697;BME280;60662;48.810;8.872;2022-12-18T13:49:38;97581.00;;;-2.16;72.80
3697;BME280;60662;48.810;8.872;2022-12-18T13:50:40;97583.97;;;-2.77;74.51
3697;BME280;60662;48.810;8.872;2022-12-18T13:51:51;97580.78;;;-2.67;74.36
3697;BME280;60662;48.810;8.872;2022-12-18T13:52:53;97570.47;;;-2.71;74.87
3697;BME280;60662;48.810;8.872;2022-12-18T13:53:59;97573.69;;;-2.79;74.47
3697;BME280;60662;48.810;8.872;2022-12-18T13:55:05;97580.88;;;-2.64;74.60
3697;BME280;60662;48.810;8.872;2022-12-18T13:56:08;97582.19;;;-2.80;75.15
3697;BME280;60662;48.810;8.872;2022-12-18T13:57:26;97581.69;;;-2.65;74.46
3697;BME280;60662;48.810;8.872;2022-12-18T13:58:29;97576.81;;;-2.54;74.63
3697;BME280;60662;48.810;8.872;2022-12-18T13:59:38;97579.81;;;-2.72;74.40
3697;BME280;60662;48.810;8.872;2022-12-18T14:00:43;97572.88;;;-2.77;75.11
3697;BME280;60662;48.810;8.872;2022-12-18T14:01:58;97586.47;;;-2.80;75.24
3697;BME280;60662;48.810;8.872;2022-12-18T14:03:17;97557.19;;;-2.93;75.69
3697;BME280;60662;48.810;8.872;2022-12-18T14:04:28;97582.97;;;-2.84;75.69
3697;BME280;60662;48.810;8.872;2022-12-18T14:05:33;97578.63;;;-2.88;76.64
3697;BME280;60662;48.810;8.872;2022-12-18T14:06:36;97577.78;;;-2.87;75.70
3697;BME280;60662;48.810;8.872;2022-12-18T14:07:37;97574.19;;;-2.95;76.63
3697;BME280;60662;48.810;8.872;2022-12-18T14:08:45;97579.16;;;-3.00;75.94
3697;BME280;60662;48.810;8.872;2022-12-18T14:09:53;97588.31;;;-3.09;76.65
3697;BME280;60662;48.810;8.872;2022-12-18T14:11:19;97588.78;;;-3.26;77.54
3697;BME280;60662;48.810;8.872;2022-12-18T14:12:45;97582.97;;;-3.19;77.60
3697;BME280;60662;48.810;8.872;2022-12-18T14:14:04;97581.31;;;-3.18;77.51
3697;BME280;60662;48.810;8.872;2022-12-18T14:16:28;97582.09;;;-3.21;77.99
3697;BME280;60662;48.810;8.872;2022-12-18T14:17:31;97586.97;;;-3.30;77.99
3697;BME280;60662;48.810;8.872;2022-12-18T14:18:48;97598.19;;;-3.25;78.28
3697;BME280;60662;48.810;8.872;2022-12-18T14:19:51;97591.81;;;-3.41;78.20
3697;BME280;60662;48.810;8.872;2022-12-18T14:21:03;97599.97;;;-3.21;78.65
3697;BME280;60662;48.810;8.872;2022-12-18T14:22:05;97593.25;;;-3.17;78.09
3697;BME280;60662;48.810;8.872;2022-12-18T14:23:42;97591.28;;;-2.92;77.57
3697;BME280;60662;48.810;8.872;2022-12-18T14:24:45;97591.13;;;-2.99;77.48
3697;BME280;60662;48.810;8.872;2022-12-18T14:25:46;97573.78;;;-3.12;78.25
3697;BME280;60662;48.810;8.872;2022-12-18T14:26:49;97588.94;;;-3.20;78.25
3697;BME280;60662;48.810;8.872;2022-12-18T14:30:35;97585.63;;;-3.49;79.81
3697;BME280;60662;48.810;8.872;2022-12-18T14:31:37;97574.03;;;-3.70;79.98
3697;BME280;60662;48.810;8.872;2022-12-18T14:32:38;97581.16;;;-3.58;80.15
3697;BME280;60662;48.810;8.872;2022-12-18T14:33:44;97577.88;;;-3.54;80.22
3697;BME280;60662;48.810;8.872;2022-12-18T14:34:48;97593.16;;;-3.55;79.52
3697;BME280;60662;48.810;8.872;2022-12-18T14:36:02;97589.63;;;-3.61;80.11
3697;BME280;60662;48.810;8.872;2022-12-18T14:37:04;97587.19;;;-3.54;80.27
3697;BME280;60662;48.810;8.872;2022-12-18T14:38:27;97592.16;;;-3.61;80.20
3697;BME280;60662;48.810;8.872;2022-12-18T14:39:29;97578.28;;;-3.70;80.48
3697;BME280;60662;48.810;8.872;2022-12-18T14:40:31;97578.97;;;-3.76;80.83
3697;BME280;60662;48.810;8.872;2022-12-18T14:41:32;97591.88;;;-3.71;81.01
3697;BME280;60662;48.810;8.872;2022-12-18T14:42:34;97573.56;;;-3.88;80.88
3697;BME280;60662;48.810;8.872;2022-12-18T14:43:37;97592.31;;;-3.86;81.32
3697;BME280;60662;48.810;8.872;2022-12-18T14:44:42;97593.63;;;-4.01;82.02
3697;BME280;60662;48.810;8.872;2022-12-18T14:47:34;97584.81;;;-4.12;82.65
3697;BME280;60662;48.810;8.872;2022-12-18T14:48:41;97587.22;;;-4.17;82.56
3697;BME280;60662;48.810;8.872;2022-12-18T14:49:43;97590.75;;;-4.12;83.02
3697;BME280;60662;48.810;8.872;2022-12-18T14:50:55;97590.69;;;-4.15;82.90
3697;BME280;60662;48.810;8.872;2022-12-18T14:52:06;97588.81;;;-4.20;83.35
3697;BME280;60662;48.810;8.872;2022-12-18T14:53:26;97594.66;;;-4.24;83.33
3697;BME280;60662;48.810;8.872;2022-12-18T14:54:30;97592.63;;;-4.36;83.68
3697;BME280;60662;48.810;8.872;2022-12-18T14:55:35;97596.13;;;-4.33;83.77
3697;BME280;60662;48.810;8.872;2022-12-18T14:56:43;97585.81;;;-4.36;83.85
3697;BME280;60662;48.810;8.872;2022-12-18T14:57:45;97584.25;;;-4.32;83.92
3697;BME280;60662;48.810;8.872;2022-12-18T14:58:55;97589.16;;;-4.38;84.30
3697;BME280;60662;48.810;8.872;2022-12-18T15:00:15;97592.53;;;-4.39;84.32
3697;BME280;60662;48.810;8.872;2022-12-18T15:01:23;97590.56;;;-4.48;84.52
3697;BME280;60662;48.810;8.872;2022-12-18T15:02:27;97595.63;;;-4.50;84.85
3697;BME280;60662;48.810;8.872;2022-12-18T15:03:30;97581.03;;;-4.55;84.81
3697;BME280;60662;48.810;8.872;2022-12-18T15:04:33;97588.84;;;-4.49;84.97
3697;BME280;60662;48.810;8.872;2022-12-18T15:05:36;97593.88;;;-4.51;84.90
3697;BME280;60662;48.810;8.872;2022-12-18T15:06:38;97595.44;;;-4.56;85.19
3697;BME280;60662;48.810;8.872;2022-12-18T15:07:49;97595.28;;;-4.62;85.26
3697;BME280;60662;48.810;8.872;2022-12-18T15:08:50;97600.50;;;-4.57;85.43
3697;BME280;60662;48.810;8.872;2022-12-18T15:11:25;97593.53;;;-4.63;86.07
3697;BME280;60662;48.810;8.872;2022-12-18T15:13:58;97589.06;;;-4.70;85.81
3697;BME280;60662;48.810;8.872;2022-12-18T15:15:00;97589.69;;;-4.78;86.12
3697;BME280;60662;48.810;8.872;2022-12-18T15:16:01;97594.91;;;-4.74;86.02
3697;BME280;60662;48.810;8.872;2022-12-18T15:17:21;97586.19;;;-4.81;86.04
3697;BME280;60662;48.810;8.872;2022-12-18T15:18:30;97588.50;;;-4.89;86.35
3697;BME280;60662;48.810;8.872;2022-12-18T15:19:35;97589.59;;;-4.81;86.36
3697;BME280;60662;48.810;8.872;2022-12-18T15:20:41;97591.34;;;-4.80;86.45
3697;BME280;60662;48.810;8.872;2022-12-18T15:21:43;97589.50;;;-4.84;86.26
3697;BME280;60662;48.810;8.872;2022-12-18T15:22:47;97585.38;;;-4.80;86.26
3697;BME280;60662;48.810;8.872;2022-12-18T15:23:50;97586.09;;;-4.84;86.48
3697;BME280;60662;48.810;8.872;2022-12-18T15:24:53;97582.03;;;-4.78;87.03
3697;BME280;60662;48.810;8.872;2022-12-18T15:25:58;97584.56;;;-4.79;86.81
3697;BME280;60662;48.810;8.872;2022-12-18T15:27:00;97575.06;;;-4.85;87.07
3697;BME280;60662;48.810;8.872;2022-12-18T15:28:02;97589.50;;;-4.84;86.79
3697;BME280;60662;48.810;8.872;2022-12-18T15:29:04;97585.91;;;-4.90;86.94
3697;BME280;60662;48.810;8.872;2022-12-18T15:32:19;97593.59;;;-4.89;87.12
3697;BME280;60662;48.810;8.872;2022-12-18T15:33:24;97594.28;;;-4.95;86.85
3697;BME280;60662;48.810;8.872;2022-12-18T15:34:26;97598.44;;;-4.97;86.86
